createdAt,value
2023-03-12T00:00:18.804Z,7.77
2023-03-12T00:02:46.376Z,6.20
2023-03-12T00:05:13.972Z,4.93
2023-03-12T00:07:41.499Z,5.67
2023-03-12T00:10:09.666Z,5.30
2023-03-12T00:12:37.199Z,5.67
2023-03-12T00:15:05.186Z,5.30
2023-03-12T00:17:32.663Z,5.20
2023-03-12T00:20:00.155Z,5.70
2023-03-12T00:22:28.050Z,5.60
2023-03-12T00:24:57.173Z,6.80
2023-03-12T00:27:26.277Z,3.47
2023-03-12T00:29:54.590Z,3.73
2023-03-12T00:32:22.497Z,3.73
2023-03-12T00:34:56.650Z,6.07
2023-03-12T00:37:24.329Z,4.87
2023-03-12T00:39:52.458Z,4.80
2023-03-12T00:42:20.394Z,5.80
2023-03-12T00:44:48.014Z,4.40
2023-03-12T00:47:15.486Z,3.83
2023-03-12T00:49:43.043Z,3.43
2023-03-12T00:52:10.606Z,5.00
2023-03-12T00:54:38.124Z,9.03
2023-03-12T00:57:05.748Z,4.80
2023-03-12T00:59:36.120Z,6.63
2023-03-12T01:02:03.706Z,6.63
2023-03-12T01:04:31.294Z,6.07
2023-03-12T01:06:58.871Z,6.87
2023-03-12T01:09:26.419Z,5.13
2023-03-12T01:11:54.113Z,6.90
2023-03-12T01:14:21.891Z,6.93
2023-03-12T01:16:52.351Z,6.47
2023-03-12T01:19:20.560Z,8.43
2023-03-12T01:21:49.371Z,8.53
2023-03-12T01:24:17.007Z,15.93
2023-03-12T01:26:45.147Z,12.53
2023-03-12T01:29:12.730Z,12.73
2023-03-12T01:31:40.487Z,12.83
2023-03-12T01:34:13.514Z,17.87
2023-03-12T01:36:41.364Z,16.70
2023-03-12T01:39:08.847Z,21.53
2023-03-12T01:41:36.635Z,27.27
2023-03-12T01:44:04.936Z,20.63
2023-03-12T01:46:38.868Z,23.27
2023-03-12T01:49:30.031Z,31.10
2023-03-12T01:52:09.502Z,26.83
2023-03-12T01:55:01.647Z,23.67
2023-03-12T01:57:53.624Z,22.87
2023-03-12T02:00:25.223Z,29.40
2023-03-12T02:02:59.952Z,24.00
2023-03-12T02:05:48.585Z,29.50
2023-03-12T02:08:18.421Z,21.87
2023-03-12T02:10:46.548Z,22.13
2023-03-12T02:13:14.822Z,23.83
2023-03-12T02:15:47.778Z,27.17
2023-03-12T02:18:19.564Z,25.70
2023-03-12T02:21:13.757Z,24.97
2023-03-12T02:24:06.203Z,19.83
2023-03-12T02:26:35.057Z,21.43
2023-03-12T02:29:04.027Z,20.23
2023-03-12T02:31:43.064Z,20.23
2023-03-12T02:34:11.509Z,24.23
2023-03-12T02:36:38.999Z,22.77
2023-03-12T02:39:06.614Z,25.53
2023-03-12T02:41:59.228Z,19.47
2023-03-12T02:44:33.551Z,20.97
2023-03-12T02:47:02.717Z,18.23
2023-03-12T02:49:33.178Z,20.00
2023-03-12T02:52:01.739Z,16.83
2023-03-12T02:54:30.104Z,16.57
2023-03-12T02:56:58.381Z,13.50
2023-03-12T02:59:27.191Z,12.20
2023-03-12T03:02:02.377Z,11.33
2023-03-12T03:04:31.814Z,9.80
2023-03-12T03:06:59.435Z,11.37
2023-03-12T03:09:27.228Z,12.30
2023-03-12T03:11:54.972Z,10.30
2023-03-12T03:14:24.067Z,15.27
2023-03-12T03:16:52.839Z,14.97
2023-03-12T03:19:23.456Z,13.93
2023-03-12T03:21:51.036Z,15.77
2023-03-12T03:24:18.685Z,11.73
2023-03-12T03:26:46.223Z,12.40
2023-03-12T03:29:14.535Z,13.30
2023-03-12T03:31:42.005Z,14.57
2023-03-12T03:34:10.619Z,12.27
2023-03-12T03:36:38.274Z,13.30
2023-03-12T03:39:10.707Z,13.83
2023-03-12T03:41:38.494Z,13.43
2023-03-12T03:44:07.898Z,13.00
2023-03-12T03:46:37.535Z,11.53
2023-03-12T03:49:07.975Z,11.87
2023-03-12T03:51:37.173Z,11.23
2023-03-12T03:54:10.233Z,12.27
2023-03-12T03:56:37.872Z,17.40
2023-03-12T03:59:06.993Z,14.63
2023-03-12T04:01:38.034Z,12.03
2023-03-12T04:04:05.574Z,14.10
2023-03-12T04:06:34.615Z,15.93
2023-03-12T04:09:02.248Z,15.60
2023-03-12T04:11:30.855Z,13.10
2023-03-12T04:13:59.489Z,10.97
2023-03-12T04:16:30.671Z,12.60
2023-03-12T04:18:59.066Z,12.57
2023-03-12T04:21:27.832Z,13.03
2023-03-12T04:23:55.582Z,12.23
2023-03-12T04:26:27.734Z,16.53
2023-03-12T04:28:56.294Z,14.23
2023-03-12T04:31:24.111Z,11.37
2023-03-12T04:33:52.784Z,11.40
2023-03-12T04:36:23.733Z,11.73
2023-03-12T04:38:52.989Z,12.07
2023-03-12T04:41:25.043Z,13.33
2023-03-12T04:43:58.529Z,14.77
2023-03-12T04:46:26.904Z,14.80
2023-03-12T04:48:54.431Z,13.73
2023-03-12T04:51:22.351Z,14.37
2023-03-12T04:53:50.544Z,11.70
2023-03-12T04:56:18.422Z,13.30
2023-03-12T04:58:48.378Z,14.43
2023-03-12T05:01:32.246Z,14.00
2023-03-12T05:04:01.512Z,12.73
2023-03-12T05:06:29.133Z,15.73
2023-03-12T05:08:58.396Z,13.87
2023-03-12T05:11:27.225Z,19.20
2023-03-12T05:13:55.755Z,19.07
2023-03-12T05:16:24.638Z,16.77
2023-03-12T05:18:52.222Z,13.17
2023-03-12T05:21:21.151Z,12.43
2023-03-12T05:23:52.243Z,14.27
2023-03-12T05:26:25.789Z,12.13
2023-03-12T05:28:58.939Z,16.60
2023-03-12T05:31:27.653Z,10.70
2023-03-12T05:33:55.950Z,12.77
2023-03-12T05:36:24.508Z,14.67
2023-03-12T05:38:52.906Z,13.43
2023-03-12T05:41:27.905Z,10.73
2023-03-12T05:46:29.262Z,14.10
2023-03-12T05:48:57.932Z,12.60
2023-03-12T05:51:25.960Z,12.83
2023-03-12T05:53:53.886Z,13.63
2023-03-12T05:56:21.552Z,12.00
2023-03-12T05:58:55.986Z,16.23
2023-03-12T06:01:27.017Z,15.07
2023-03-12T06:03:56.949Z,11.87
2023-03-12T06:06:26.070Z,14.07
2023-03-12T06:08:54.740Z,19.10
2023-03-12T06:11:22.259Z,13.60
2023-03-12T06:13:49.824Z,14.20
2023-03-12T06:16:21.577Z,17.10
2023-03-12T06:18:52.734Z,15.33
2023-03-12T06:21:23.318Z,17.70
2023-03-12T06:23:52.474Z,17.57
2023-03-12T06:26:30.493Z,15.03
2023-03-12T06:28:58.082Z,16.10
2023-03-12T06:31:25.768Z,20.07
2023-03-12T06:33:53.876Z,16.27
2023-03-12T06:36:23.357Z,18.60
2023-03-12T06:38:51.091Z,18.67
2023-03-12T06:41:20.493Z,16.83
2023-03-12T06:43:48.616Z,21.83
2023-03-12T06:46:19.323Z,17.43
2023-03-12T06:48:47.346Z,20.23
2023-03-12T06:51:16.401Z,19.43
2023-03-12T06:53:45.517Z,21.47
2023-03-12T06:56:14.085Z,19.57
2023-03-12T06:58:42.300Z,18.77
2023-03-12T07:01:10.215Z,23.10
2023-03-12T07:03:38.073Z,22.10
2023-03-12T07:06:12.622Z,22.80
2023-03-12T07:08:40.157Z,20.27
2023-03-12T07:11:07.960Z,20.57
2023-03-12T07:13:35.575Z,21.70
2023-03-12T07:16:03.739Z,17.90
2023-03-12T07:18:31.525Z,19.20
2023-03-12T07:20:58.969Z,21.33
2023-03-12T07:23:26.937Z,24.83
2023-03-12T07:25:54.523Z,23.17
2023-03-12T07:28:22.867Z,20.40
2023-03-12T07:30:50.853Z,20.33
2023-03-12T07:33:20.848Z,21.53
2023-03-12T07:35:51.544Z,22.63
2023-03-12T07:38:19.822Z,22.20
2023-03-12T07:40:52.086Z,17.67
2023-03-12T07:43:21.656Z,21.20
2023-03-12T07:45:51.200Z,20.40
2023-03-12T07:48:22.083Z,24.00
2023-03-12T07:50:49.759Z,20.60
2023-03-12T07:53:17.998Z,19.02
2023-03-12T07:55:48.133Z,16.07
2023-03-12T07:58:17.076Z,14.13
2023-03-12T08:00:45.439Z,13.37
2023-03-12T08:03:13.657Z,14.00
2023-03-12T08:05:41.710Z,14.30
2023-03-12T08:08:10.020Z,14.37
2023-03-12T08:10:38.054Z,16.93
2023-03-12T08:13:05.722Z,12.43
2023-03-12T08:15:33.669Z,14.00
2023-03-12T08:18:01.577Z,13.90
2023-03-12T08:20:29.257Z,17.97
2023-03-12T08:22:56.970Z,15.00
2023-03-12T08:25:24.909Z,10.87
2023-03-12T08:27:53.136Z,13.95
2023-03-12T08:30:21.333Z,16.67
2023-03-12T08:32:49.231Z,18.90
2023-03-12T08:35:16.772Z,14.17
2023-03-12T08:37:44.365Z,15.23
2023-03-12T08:40:15.508Z,15.13
2023-03-12T08:42:44.914Z,15.70
2023-03-12T08:45:14.519Z,15.73
2023-03-12T08:47:43.661Z,11.05
2023-03-12T08:50:13.262Z,12.97
2023-03-12T08:52:41.020Z,13.70
2023-03-12T08:55:09.210Z,14.27
2023-03-12T08:57:36.971Z,12.70
2023-03-12T09:00:08.298Z,10.43
2023-03-12T09:02:35.989Z,14.50
2023-03-12T09:05:04.244Z,9.65
2023-03-12T09:07:34.355Z,11.20
2023-03-12T09:10:01.830Z,9.50
2023-03-12T09:12:30.683Z,12.07
2023-03-12T09:15:03.367Z,12.45
2023-03-12T09:17:31.646Z,10.35
2023-03-12T09:20:00.247Z,16.83
2023-03-12T09:22:30.265Z,8.68
2023-03-12T09:24:58.009Z,13.63
2023-03-12T09:27:25.639Z,9.05
2023-03-12T09:30:00.631Z,15.48
2023-03-12T09:34:58.379Z,11.02
2023-03-12T09:37:26.285Z,8.48
2023-03-12T09:39:53.804Z,10.38
2023-03-12T09:42:30.309Z,8.63
2023-03-12T09:45:02.050Z,13.65
2023-03-12T09:47:33.744Z,9.45
2023-03-12T09:50:21.363Z,13.38
2023-03-12T09:53:04.696Z,16.70
2023-03-12T09:55:39.939Z,16.25
2023-03-12T09:58:32.687Z,13.32
2023-03-12T10:01:11.922Z,16.85
2023-03-12T10:04:12.013Z,11.82
2023-03-12T10:07:11.484Z,5.60
2023-03-12T10:10:04.133Z,9.43
2023-03-12T10:13:09.812Z,12.48
2023-03-12T10:15:46.293Z,6.85
2023-03-12T10:18:22.950Z,6.67
2023-03-12T10:21:07.750Z,5.82
2023-03-12T10:24:31.607Z,5.90
2023-03-12T10:27:01.883Z,4.95
2023-03-12T10:29:33.651Z,5.20
2023-03-12T10:32:16.945Z,43.35
2023-03-12T10:34:48.107Z,8.48
2023-03-12T10:37:40.792Z,7.25
2023-03-12T10:40:15.221Z,6.63
2023-03-12T10:42:43.252Z,7.20
2023-03-12T10:45:18.441Z,4.68
2023-03-12T10:47:53.195Z,5.13
2023-03-12T10:50:26.065Z,4.45
2023-03-12T10:53:21.504Z,7.10
2023-03-12T10:56:01.282Z,8.43
2023-03-12T10:58:52.630Z,8.27
2023-03-12T11:01:28.253Z,9.27
2023-03-12T11:04:09.552Z,5.45
2023-03-12T11:06:37.132Z,5.53
2023-03-12T11:09:17.142Z,4.75
2023-03-12T11:11:50.242Z,6.13
2023-03-12T11:14:20.973Z,6.35
2023-03-12T11:16:50.340Z,3.80
2023-03-12T11:19:31.745Z,6.60
2023-03-12T11:22:05.833Z,10.52
2023-03-12T11:24:34.051Z,6.97
2023-03-12T11:27:20.631Z,6.03
2023-03-12T11:29:50.724Z,4.78
2023-03-12T11:32:32.281Z,6.00
2023-03-12T11:35:01.303Z,5.57
2023-03-12T11:37:42.960Z,5.10
2023-03-12T11:40:28.830Z,9.35
2023-03-12T11:43:42.092Z,4.18
2023-03-12T11:46:35.096Z,3.05
2023-03-12T11:49:18.316Z,1.40
2023-03-12T11:52:01.415Z,0.88
2023-03-12T11:54:42.475Z,0.98
2023-03-12T11:57:15.830Z,2.00
2023-03-12T12:00:09.793Z,2.15
2023-03-12T12:03:17.032Z,2.25
2023-03-12T12:06:06.905Z,1.35
2023-03-12T12:08:45.502Z,0.98
2023-03-12T12:11:52.672Z,0.93
2023-03-12T12:14:49.393Z,1.20
2023-03-12T12:17:44.172Z,1.93
2023-03-12T12:20:14.838Z,2.23
2023-03-12T12:23:10.969Z,0.97
2023-03-12T12:25:52.554Z,0.82
2023-03-12T12:28:20.473Z,0.77
2023-03-12T12:30:59.018Z,2.40
2023-03-12T12:33:51.490Z,3.03
2023-03-12T12:36:19.453Z,2.30
2023-03-12T12:39:01.430Z,6.07
2023-03-12T12:41:35.769Z,3.77
2023-03-12T12:44:11.596Z,2.47
2023-03-12T12:46:49.791Z,0.53
2023-03-12T12:49:26.740Z,0.87
2023-03-12T12:52:01.009Z,2.80
2023-03-12T12:54:47.107Z,2.83
2023-03-12T12:57:20.853Z,1.10
2023-03-12T13:00:21.373Z,1.77
2023-03-12T13:02:51.014Z,1.73
2023-03-12T13:05:29.208Z,0.73
2023-03-12T13:07:56.767Z,0.67
2023-03-12T13:10:33.452Z,0.60
2023-03-12T13:13:11.376Z,1.55
2023-03-12T13:15:43.721Z,0.90
2023-03-12T13:18:24.532Z,0.97
2023-03-12T13:20:52.141Z,0.53
2023-03-12T13:23:23.841Z,0.97
2023-03-12T13:25:54.422Z,1.27
2023-03-12T13:28:32.614Z,0.40
2023-03-12T13:31:19.765Z,1.20
2023-03-12T13:33:50.607Z,2.47
2023-03-12T13:36:23.438Z,1.13
2023-03-12T13:39:17.450Z,0.50
2023-03-12T13:41:44.966Z,0.80
2023-03-12T13:44:27.685Z,1.07
2023-03-12T13:47:01.487Z,2.47
2023-03-12T13:50:00.653Z,1.83
2023-03-12T13:52:34.425Z,0.60
2023-03-12T13:55:26.884Z,1.10
2023-03-12T13:57:58.909Z,0.83
2023-03-12T14:00:33.353Z,1.00
2023-03-12T14:03:20.511Z,2.67
2023-03-12T14:05:53.506Z,4.30
2023-03-12T14:08:37.456Z,1.67
2023-03-12T14:11:16.585Z,1.93
2023-03-12T14:14:02.189Z,0.87
2023-03-12T14:16:42.288Z,1.77
2023-03-12T14:19:14.444Z,1.00
2023-03-12T14:21:45.254Z,0.80
2023-03-12T14:24:21.169Z,1.17
2023-03-12T14:26:49.804Z,1.50
2023-03-12T14:29:25.902Z,0.93
2023-03-12T14:31:58.778Z,3.37
2023-03-12T14:34:31.877Z,1.40
2023-03-12T14:37:24.373Z,2.47
2023-03-12T14:40:02.005Z,0.80
2023-03-12T14:42:35.571Z,1.30
2023-03-12T14:45:13.991Z,0.40
2023-03-12T14:47:52.450Z,5.37
2023-03-12T14:50:26.355Z,0.93
2023-03-12T14:52:56.052Z,1.73
2023-03-12T14:55:26.175Z,4.87
2023-03-12T14:58:18.634Z,2.10
2023-03-12T15:00:59.469Z,1.13
2023-03-12T15:03:29.145Z,1.73
2023-03-12T15:05:57.506Z,0.73
2023-03-12T15:08:25.724Z,0.97
2023-03-12T15:10:57.522Z,1.37
2023-03-12T15:13:27.569Z,1.53
2023-03-12T15:15:56.066Z,0.87
2023-03-12T15:18:28.623Z,1.70
2023-03-12T15:20:59.435Z,1.23
2023-03-12T15:23:30.838Z,5.67
2023-03-12T15:26:20.407Z,2.20
2023-03-12T15:29:28.661Z,1.30
2023-03-12T15:32:00.244Z,1.60
2023-03-12T15:34:32.962Z,1.53
2023-03-12T15:37:03.316Z,1.70
2023-03-12T15:39:34.535Z,1.40
2023-03-12T15:42:09.624Z,2.10
2023-03-12T15:44:47.432Z,1.53
2023-03-12T15:47:21.086Z,2.53
2023-03-12T15:49:53.659Z,1.63
2023-03-12T15:52:24.876Z,2.97
2023-03-12T15:55:19.873Z,3.33
2023-03-12T15:57:50.339Z,6.53
2023-03-12T16:00:30.838Z,1.87
2023-03-12T16:03:08.087Z,2.37
2023-03-12T16:05:39.200Z,1.65
2023-03-12T16:08:35.444Z,1.80
2023-03-12T16:11:03.808Z,2.20
2023-03-12T16:13:32.379Z,2.43
2023-03-12T16:16:02.868Z,1.70
2023-03-12T16:18:30.608Z,1.83
2023-03-12T16:20:58.637Z,2.60
2023-03-12T16:23:26.210Z,1.80
2023-03-12T16:25:55.850Z,2.03
2023-03-12T16:28:24.552Z,2.17
2023-03-12T16:30:53.195Z,1.90
2023-03-12T16:33:24.453Z,1.97
2023-03-12T16:35:52.260Z,2.17
2023-03-12T16:38:20.026Z,3.77
2023-03-12T16:40:51.084Z,2.10
2023-03-12T16:43:30.752Z,4.07
2023-03-12T16:45:59.040Z,2.67
2023-03-12T16:48:26.694Z,4.20
2023-03-12T16:50:57.690Z,2.70
2023-03-12T16:53:26.381Z,2.13
2023-03-12T16:55:57.596Z,2.17
2023-03-12T16:58:26.414Z,2.43
2023-03-12T17:00:55.793Z,2.23
2023-03-12T17:03:35.800Z,2.60
2023-03-12T17:06:05.452Z,2.43
2023-03-12T17:08:33.708Z,1.83
2023-03-12T17:11:01.818Z,2.20
2023-03-12T17:13:30.097Z,2.33
2023-03-12T17:16:00.145Z,2.57
2023-03-12T17:18:27.893Z,2.10
2023-03-12T17:20:56.579Z,1.50
2023-03-12T17:23:24.836Z,2.13
2023-03-12T17:25:52.528Z,2.10
2023-03-12T17:28:20.484Z,1.80
2023-03-12T17:30:48.170Z,1.77
2023-03-12T17:33:18.045Z,2.63
2023-03-12T17:35:45.984Z,2.93
2023-03-12T17:38:14.130Z,2.43
2023-03-12T17:40:43.671Z,2.00
2023-03-12T17:43:11.238Z,1.60
2023-03-12T17:45:40.182Z,4.70
2023-03-12T17:48:08.065Z,4.03
2023-03-12T17:50:36.332Z,2.73
2023-03-12T17:53:05.639Z,3.30
2023-03-12T17:55:35.576Z,2.30
2023-03-12T17:58:06.120Z,2.27
2023-03-12T18:00:34.430Z,3.20
2023-03-12T18:03:02.301Z,2.23
2023-03-12T18:05:30.201Z,2.00
2023-03-12T18:07:57.784Z,1.97
2023-03-12T18:10:28.225Z,1.97
2023-03-12T18:12:55.957Z,2.10
2023-03-12T18:15:23.693Z,2.67
2023-03-12T18:17:53.312Z,1.60
2023-03-12T18:20:35.828Z,2.23
2023-03-12T18:23:05.731Z,1.47
2023-03-12T18:25:33.574Z,1.80
2023-03-12T18:28:01.153Z,2.10
2023-03-12T18:30:29.182Z,2.27
2023-03-12T18:32:56.874Z,2.27
2023-03-12T18:35:29.112Z,1.40
2023-03-12T18:37:57.629Z,2.10
2023-03-12T18:40:27.707Z,1.60
2023-03-12T18:42:59.239Z,1.37
2023-03-12T18:45:28.129Z,15.27
2023-03-12T18:47:56.048Z,5.90
2023-03-12T18:50:24.460Z,2.37
2023-03-12T18:52:52.825Z,2.53
2023-03-12T18:55:20.871Z,1.27
2023-03-12T18:57:49.019Z,1.20
2023-03-12T19:00:18.045Z,1.50
2023-03-12T19:02:48.138Z,1.40
2023-03-12T19:05:17.197Z,1.83
2023-03-12T19:07:44.968Z,1.33
2023-03-12T19:10:13.984Z,2.37
2023-03-12T19:12:52.105Z,1.30
2023-03-12T19:15:24.285Z,1.30
2023-03-12T19:17:52.910Z,1.23
2023-03-12T19:20:21.730Z,1.27
2023-03-12T19:22:50.036Z,1.30
2023-03-12T19:25:17.526Z,1.33
2023-03-12T19:27:45.236Z,1.70
2023-03-12T19:30:13.959Z,9.50
2023-03-12T19:32:44.199Z,2.37
2023-03-12T19:35:14.747Z,1.20
2023-03-12T19:37:42.948Z,1.33
2023-03-12T19:40:11.167Z,1.50
2023-03-12T19:42:40.461Z,2.17
2023-03-12T19:45:08.756Z,2.53
2023-03-12T19:47:36.399Z,1.27
2023-03-12T19:50:04.329Z,1.83
2023-03-12T19:52:31.972Z,2.47
2023-03-12T19:55:05.347Z,2.00
2023-03-12T19:57:34.228Z,3.00
2023-03-12T20:00:02.500Z,1.50
2023-03-12T20:02:32.253Z,1.53
2023-03-12T20:04:59.978Z,2.10
2023-03-12T20:07:27.525Z,1.00
2023-03-12T20:09:55.247Z,1.03
2023-03-12T20:12:22.989Z,1.60
2023-03-12T20:14:50.810Z,2.10
2023-03-12T20:17:18.425Z,1.30
2023-03-12T20:19:46.010Z,1.20
2023-03-12T20:22:13.659Z,2.03
2023-03-12T20:24:41.209Z,15.87
2023-03-12T20:27:08.865Z,4.73
2023-03-12T20:29:36.423Z,4.27
2023-03-12T20:32:04.226Z,3.60
2023-03-12T20:34:32.212Z,1.30
2023-03-12T20:36:59.676Z,1.63
2023-03-12T20:39:27.449Z,2.00
2023-03-12T20:41:55.040Z,1.47
2023-03-12T20:44:22.720Z,1.37
2023-03-12T20:46:50.334Z,3.03
2023-03-12T20:49:17.810Z,3.57
2023-03-12T20:51:46.076Z,4.03
2023-03-12T20:54:14.128Z,3.10
2023-03-12T20:56:45.897Z,1.50
2023-03-12T20:59:13.465Z,4.60
2023-03-12T21:01:41.368Z,1.90
2023-03-12T21:04:11.640Z,1.60
2023-03-12T21:06:39.243Z,1.83
2023-03-12T21:09:07.354Z,1.80
2023-03-12T21:11:35.250Z,3.17
2023-03-12T21:14:02.694Z,3.47
2023-03-12T21:16:30.309Z,3.23
2023-03-12T21:18:58.321Z,1.57
2023-03-12T21:21:25.995Z,3.53
2023-03-12T21:23:53.646Z,2.60
2023-03-12T21:26:22.035Z,3.07
2023-03-12T21:28:49.639Z,2.53
2023-03-12T21:31:17.999Z,1.63
2023-03-12T21:33:45.559Z,2.43
2023-03-12T21:36:14.731Z,1.23
2023-03-12T21:38:43.265Z,2.63
2023-03-12T21:41:13.897Z,1.97
2023-03-12T21:43:42.013Z,1.80
2023-03-12T21:46:12.144Z,1.27
2023-03-12T21:48:41.061Z,1.30
2023-03-12T21:51:10.937Z,1.93
2023-03-12T21:53:38.936Z,1.27
2023-03-12T21:56:08.119Z,2.63
2023-03-12T21:58:36.406Z,1.13
2023-03-12T22:01:13.200Z,1.43
2023-03-12T22:03:42.318Z,1.20
2023-03-12T22:06:11.324Z,5.07
2023-03-12T22:08:39.321Z,2.10
2023-03-12T22:11:07.686Z,24.97
2023-03-12T22:13:35.584Z,5.07
2023-03-12T22:16:06.947Z,3.63
2023-03-12T22:18:40.970Z,2.40
2023-03-12T22:21:14.751Z,1.50
2023-03-12T22:23:42.356Z,2.13
2023-03-12T22:26:10.227Z,0.90
2023-03-12T22:28:37.793Z,3.00
2023-03-12T22:31:08.219Z,1.00
2023-03-12T22:33:36.826Z,1.00
2023-03-12T22:36:09.978Z,1.87
2023-03-12T22:38:38.672Z,1.43
2023-03-12T22:41:21.583Z,1.83
2023-03-12T22:43:51.000Z,1.67
2023-03-12T22:46:20.610Z,2.97
2023-03-12T22:48:53.131Z,1.33
2023-03-12T22:51:20.703Z,1.63
2023-03-12T22:53:48.380Z,1.10
2023-03-12T22:56:16.418Z,16.63
2023-03-12T22:58:44.118Z,4.00
2023-03-12T23:01:18.489Z,2.90
2023-03-12T23:03:47.136Z,1.83
2023-03-12T23:06:17.448Z,1.50
2023-03-12T23:11:31.013Z,1.63
2023-03-12T23:13:58.469Z,1.73
2023-03-12T23:16:26.387Z,1.30
2023-03-12T23:18:54.057Z,1.53
2023-03-12T23:21:23.668Z,3.87
2023-03-12T23:23:52.017Z,1.33
2023-03-12T23:26:29.179Z,2.20
2023-03-12T23:28:58.460Z,1.02
2023-03-12T23:31:27.869Z,0.83
2023-03-12T23:33:56.229Z,2.13
2023-03-12T23:36:24.816Z,1.80
2023-03-12T23:38:52.322Z,1.93
2023-03-12T23:41:22.238Z,1.90
2023-03-12T23:43:50.516Z,1.60
2023-03-12T23:46:18.798Z,2.53
2023-03-12T23:48:47.001Z,3.73
2023-03-12T23:51:20.591Z,1.13
2023-03-12T23:53:50.361Z,1.83
2023-03-12T23:56:23.388Z,1.10
2023-03-12T23:58:51.638Z,1.10
